createdAt,value
2022-10-17T00:00:00.304Z,0.000
2022-10-17T00:01:00.293Z,0.000
2022-10-17T00:02:00.311Z,0.000
2022-10-17T00:03:00.536Z,0.000
2022-10-17T00:04:00.341Z,0.000
2022-10-17T00:05:00.349Z,0.000
2022-10-17T00:06:00.322Z,0.000
2022-10-17T00:07:00.351Z,0.000
2022-10-17T00:08:00.334Z,0.000
2022-10-17T00:09:00.502Z,0.000
2022-10-17T00:10:00.537Z,0.000
2022-10-17T00:11:00.340Z,0.000
2022-10-17T00:12:00.334Z,0.000
2022-10-17T00:13:00.299Z,0.000
2022-10-17T00:14:00.308Z,0.000
2022-10-17T00:15:00.396Z,0.000
2022-10-17T00:16:00.275Z,0.000
2022-10-17T00:17:00.289Z,0.000
2022-10-17T00:18:00.284Z,0.000
2022-10-17T00:19:00.279Z,0.000
2022-10-17T00:20:00.881Z,0.000
2022-10-17T00:21:00.313Z,0.000
2022-10-17T00:22:00.280Z,0.000
2022-10-17T00:23:00.311Z,0.000
2022-10-17T00:24:00.311Z,0.000
2022-10-17T00:25:00.410Z,0.000
2022-10-17T00:26:00.420Z,0.000
2022-10-17T00:27:00.304Z,0.000
2022-10-17T00:28:00.279Z,0.000
2022-10-17T00:29:00.350Z,0.000
2022-10-17T00:30:00.345Z,0.000
2022-10-17T00:31:00.297Z,0.000
2022-10-17T00:32:00.448Z,0.000
2022-10-17T00:33:00.347Z,0.000
2022-10-17T00:34:00.308Z,0.000
2022-10-17T00:35:00.289Z,0.000
2022-10-17T00:36:00.291Z,0.000
2022-10-17T00:37:00.319Z,0.000
2022-10-17T00:38:00.446Z,0.000
2022-10-17T00:39:00.288Z,0.000
2022-10-17T00:40:00.482Z,0.000
2022-10-17T00:41:00.328Z,0.000
2022-10-17T00:42:00.320Z,0.000
2022-10-17T00:43:00.315Z,0.000
2022-10-17T00:44:00.396Z,0.000
2022-10-17T00:45:00.304Z,0.000
2022-10-17T00:46:00.289Z,0.000
2022-10-17T00:47:00.286Z,0.000
2022-10-17T00:48:00.319Z,0.000
2022-10-17T00:49:00.297Z,0.000
2022-10-17T00:51:00.277Z,0.000
2022-10-17T00:52:00.309Z,0.000
2022-10-17T00:53:00.295Z,0.000
2022-10-17T00:54:00.295Z,0.000
2022-10-17T00:55:00.353Z,0.000
2022-10-17T00:56:00.420Z,0.000
2022-10-17T00:57:00.301Z,0.000
2022-10-17T00:58:00.293Z,0.000
2022-10-17T00:59:00.331Z,0.000
2022-10-17T01:00:00.323Z,0.000
2022-10-17T01:01:00.426Z,0.000
2022-10-17T01:02:00.451Z,0.000
2022-10-17T01:03:00.368Z,0.000
2022-10-17T01:04:00.354Z,0.000
2022-10-17T01:05:00.337Z,0.000
2022-10-17T01:06:00.357Z,0.000
2022-10-17T01:07:00.293Z,0.000
2022-10-17T01:08:00.473Z,0.000
2022-10-17T01:09:00.310Z,0.000
2022-10-17T01:10:00.504Z,0.000
2022-10-17T01:11:00.312Z,0.000
2022-10-17T01:12:00.296Z,0.000
2022-10-17T01:13:00.274Z,0.000
2022-10-17T01:14:00.432Z,0.000
2022-10-17T01:15:00.305Z,0.000
2022-10-17T01:16:00.309Z,0.000
2022-10-17T01:17:00.271Z,0.000
2022-10-17T01:18:00.286Z,0.000
2022-10-17T01:19:00.287Z,0.000
2022-10-17T01:20:00.451Z,0.000
2022-10-17T01:21:00.308Z,0.000
2022-10-17T01:22:00.288Z,0.000
2022-10-17T01:23:00.290Z,0.000
2022-10-17T01:24:00.344Z,0.000
2022-10-17T01:25:00.459Z,0.000
2022-10-17T01:26:00.510Z,0.000
2022-10-17T01:27:00.277Z,0.000
2022-10-17T01:28:00.293Z,0.000
2022-10-17T01:29:00.290Z,0.000
2022-10-17T01:30:00.315Z,0.000
2022-10-17T01:31:00.345Z,0.000
2022-10-17T01:32:00.452Z,0.000
2022-10-17T01:33:00.291Z,0.000
2022-10-17T01:34:00.274Z,0.000
2022-10-17T01:35:00.303Z,0.000
2022-10-17T01:36:03.373Z,0.000
2022-10-17T01:37:00.362Z,0.000
2022-10-17T01:38:00.608Z,0.000
2022-10-17T01:39:00.357Z,0.000
2022-10-17T01:40:00.498Z,0.000
2022-10-17T01:41:00.292Z,0.000
2022-10-17T01:42:00.292Z,0.000
2022-10-17T01:43:00.327Z,0.000
2022-10-17T01:44:00.427Z,0.000
2022-10-17T01:45:00.429Z,0.000
2022-10-17T01:46:00.302Z,0.000
2022-10-17T01:47:00.316Z,0.000
2022-10-17T01:48:00.281Z,0.000
2022-10-17T01:49:00.304Z,0.000
2022-10-17T01:50:00.665Z,0.000
2022-10-17T01:51:00.276Z,0.000
2022-10-17T01:52:00.288Z,0.000
2022-10-17T01:53:00.290Z,0.000
2022-10-17T01:54:00.293Z,0.000
2022-10-17T01:55:00.487Z,0.000
2022-10-17T01:56:00.477Z,0.000
2022-10-17T01:57:00.278Z,0.000
2022-10-17T01:58:00.295Z,0.000
2022-10-17T01:59:00.288Z,0.000
2022-10-17T02:00:00.335Z,0.000
2022-10-17T02:01:00.313Z,0.000
2022-10-17T02:02:00.442Z,0.000
2022-10-17T02:03:00.331Z,0.000
2022-10-17T02:04:00.288Z,0.000
2022-10-17T02:06:00.329Z,0.000
2022-10-17T02:07:00.290Z,0.000
2022-10-17T02:08:00.508Z,0.000
2022-10-17T02:09:00.334Z,0.000
2022-10-17T02:10:00.295Z,0.000
2022-10-17T02:11:00.527Z,0.000
2022-10-17T02:12:00.325Z,0.000
2022-10-17T02:13:00.310Z,0.000
2022-10-17T02:14:00.614Z,0.000
2022-10-17T02:15:00.293Z,0.000
2022-10-17T02:16:00.468Z,0.000
2022-10-17T02:17:00.402Z,0.000
2022-10-17T02:18:00.380Z,0.000
2022-10-17T02:19:00.293Z,0.000
2022-10-17T02:20:00.743Z,0.000
2022-10-17T02:21:00.329Z,0.000
2022-10-17T02:22:00.289Z,0.000
2022-10-17T02:23:00.283Z,0.000
2022-10-17T02:24:00.294Z,0.000
2022-10-17T02:25:00.278Z,0.000
2022-10-17T02:26:01.882Z,0.000
2022-10-17T02:27:00.292Z,0.000
2022-10-17T02:28:00.277Z,0.000
2022-10-17T02:29:00.375Z,0.045
2022-10-17T02:30:00.303Z,0.045
2022-10-17T02:31:00.293Z,0.045
2022-10-17T02:32:00.445Z,0.045
2022-10-17T02:33:00.274Z,0.045
2022-10-17T02:34:00.299Z,0.045
2022-10-17T02:35:00.293Z,0.045
2022-10-17T02:36:00.298Z,0.045
2022-10-17T02:37:00.278Z,0.045
2022-10-17T02:38:00.518Z,0.045
2022-10-17T02:39:00.306Z,0.045
2022-10-17T02:40:00.300Z,0.045
2022-10-17T02:41:00.290Z,0.045
2022-10-17T02:42:00.450Z,0.045
2022-10-17T02:43:00.322Z,0.090
2022-10-17T02:44:02.450Z,0.090
2022-10-17T02:45:00.341Z,0.135
2022-10-17T02:46:00.354Z,0.180
2022-10-17T02:47:00.318Z,0.180
2022-10-17T02:48:00.568Z,0.225
2022-10-17T02:49:00.312Z,0.270
2022-10-17T02:50:00.519Z,0.405
2022-10-17T02:51:00.302Z,0.450
2022-10-17T02:52:00.312Z,0.585
2022-10-17T02:53:00.307Z,0.720
2022-10-17T02:54:00.290Z,0.945
2022-10-17T02:55:00.325Z,1.170
2022-10-17T02:56:00.746Z,1.395
2022-10-17T02:57:00.512Z,1.710
2022-10-17T02:58:00.290Z,2.205
2022-10-17T02:59:00.306Z,2.745
2022-10-17T03:00:00.307Z,3.330
2022-10-17T03:01:00.339Z,4.185
2022-10-17T03:02:00.468Z,5.085
2022-10-17T03:03:00.276Z,6.255
2022-10-17T03:04:00.281Z,7.560
2022-10-17T03:05:00.301Z,9.000
2022-10-17T03:06:00.375Z,10.665
2022-10-17T03:07:00.337Z,12.330
2022-10-17T03:08:00.461Z,14.490
2022-10-17T03:09:00.369Z,16.650
2022-10-17T03:10:00.309Z,19.080
2022-10-17T03:11:00.283Z,21.960
2022-10-17T03:12:00.418Z,25.380
2022-10-17T03:13:00.298Z,29.880
2022-10-17T03:14:00.467Z,34.740
2022-10-17T03:15:00.297Z,38.880
2022-10-17T03:16:00.308Z,42.660
2022-10-17T03:17:00.311Z,46.440
2022-10-17T03:18:00.277Z,51.120
2022-10-17T03:19:00.281Z,56.160
2022-10-17T03:20:00.441Z,62.640
2022-10-17T03:21:00.297Z,68.400
2022-10-17T03:22:00.298Z,74.160
2022-10-17T03:23:00.299Z,80.640
2022-10-17T03:24:00.279Z,86.040
2022-10-17T03:25:00.310Z,90.360
2022-10-17T03:26:00.458Z,94.320
2022-10-17T03:27:00.428Z,98.640
2022-10-17T03:28:00.294Z,105.120
2022-10-17T03:29:00.361Z,113.040
2022-10-17T03:30:00.283Z,122.400
2022-10-17T03:31:00.306Z,133.920
2022-10-17T03:32:00.448Z,144.720
2022-10-17T03:33:00.346Z,156.960
2022-10-17T03:34:00.313Z,168.480
2022-10-17T03:35:00.329Z,180.720
2022-10-17T03:36:00.361Z,192.960
2022-10-17T03:37:00.298Z,205.920
2022-10-17T03:38:00.464Z,218.880
2022-10-17T03:39:00.296Z,231.840
2022-10-17T03:40:00.298Z,246.240
2022-10-17T03:41:00.312Z,256.320
2022-10-17T03:42:00.431Z,267.840
2022-10-17T03:43:00.324Z,277.920
2022-10-17T03:44:00.470Z,288.000
2022-10-17T03:45:00.307Z,293.760
2022-10-17T03:46:00.329Z,298.080
2022-10-17T03:47:00.290Z,300.960
2022-10-17T03:48:00.291Z,303.840
2022-10-17T03:49:00.306Z,308.160
2022-10-17T03:50:00.471Z,313.920
2022-10-17T03:51:00.332Z,322.560
2022-10-17T03:52:00.375Z,335.520
2022-10-17T03:53:00.299Z,349.920
2022-10-17T03:54:00.389Z,367.200
2022-10-17T03:55:00.319Z,385.920
2022-10-17T03:56:00.495Z,406.080
2022-10-17T03:57:00.447Z,426.240
2022-10-17T03:58:00.293Z,443.520
2022-10-17T03:59:00.280Z,457.920
2022-10-17T04:00:00.314Z,469.440
2022-10-17T04:01:00.319Z,480.960
2022-10-17T04:02:00.382Z,492.480
2022-10-17T04:03:00.364Z,504.000
2022-10-17T04:04:00.475Z,521.280
2022-10-17T04:05:00.441Z,541.440
2022-10-17T04:06:00.415Z,564.480
2022-10-17T04:07:00.420Z,587.520
2022-10-17T04:08:03.881Z,610.560
2022-10-17T04:09:00.363Z,633.600
2022-10-17T04:10:00.345Z,650.880
2022-10-17T04:11:00.289Z,665.280
2022-10-17T04:12:00.428Z,676.800
2022-10-17T04:13:00.304Z,676.800
2022-10-17T04:14:00.440Z,668.160
2022-10-17T04:15:00.310Z,650.880
2022-10-17T04:16:00.297Z,627.840
2022-10-17T04:17:00.289Z,593.280
2022-10-17T04:18:00.317Z,552.960
2022-10-17T04:19:00.309Z,512.640
2022-10-17T04:20:00.421Z,478.080
2022-10-17T04:21:00.313Z,440.640
2022-10-17T04:22:00.295Z,408.960
2022-10-17T04:23:00.274Z,380.160
2022-10-17T04:24:00.318Z,354.240
2022-10-17T04:25:00.288Z,326.880
2022-10-17T04:26:00.442Z,303.840
2022-10-17T04:27:00.284Z,280.800
2022-10-17T04:28:00.382Z,262.080
2022-10-17T04:29:00.306Z,244.800
2022-10-17T04:30:00.288Z,231.840
2022-10-17T04:31:00.289Z,224.640
2022-10-17T04:32:00.513Z,221.760
2022-10-17T04:33:00.304Z,227.520
2022-10-17T04:34:00.291Z,226.080
2022-10-17T04:35:00.274Z,237.600
2022-10-17T04:36:00.286Z,252.000
2022-10-17T04:37:00.293Z,270.720
2022-10-17T04:38:00.417Z,293.760
2022-10-17T04:39:00.332Z,319.680
2022-10-17T04:40:00.286Z,352.800
2022-10-17T04:41:00.292Z,388.800
2022-10-17T04:42:00.288Z,432.000
2022-10-17T04:43:00.441Z,475.200
2022-10-17T04:44:00.483Z,518.400
2022-10-17T04:45:00.308Z,555.840
2022-10-17T04:46:00.294Z,584.640
2022-10-17T04:47:00.311Z,604.800
2022-10-17T04:48:00.313Z,622.080
2022-10-17T04:49:00.318Z,624.960
2022-10-17T04:50:00.456Z,633.600
2022-10-17T04:51:00.283Z,636.480
2022-10-17T04:52:00.316Z,639.360
2022-10-17T04:53:00.327Z,648.000
2022-10-17T04:54:00.312Z,662.400
2022-10-17T04:55:00.368Z,691.200
2022-10-17T04:56:00.420Z,728.640
2022-10-17T04:57:00.292Z,771.840
2022-10-17T04:58:00.532Z,829.440
2022-10-17T04:59:00.292Z,904.320
2022-10-17T05:00:00.425Z,990.720
2022-10-17T05:01:00.314Z,1146.240
2022-10-17T05:02:00.370Z,1238.400
2022-10-17T05:03:00.276Z,1330.560
2022-10-17T05:04:00.291Z,1422.720
2022-10-17T05:05:00.279Z,1509.120
2022-10-17T05:06:00.283Z,1612.800
2022-10-17T05:07:00.309Z,1681.920
2022-10-17T05:08:00.441Z,1831.680
2022-10-17T05:09:00.316Z,2211.840
2022-10-17T05:10:00.358Z,2211.840
2022-10-17T05:12:00.334Z,2615.040
2022-10-17T05:13:00.488Z,3248.640
2022-10-17T05:14:00.726Z,9538.560
2022-10-17T05:15:00.321Z,9492.480
2022-10-17T05:16:00.279Z,8709.120
2022-10-17T05:17:00.293Z,7971.840
2022-10-17T05:18:00.279Z,7511.040
2022-10-17T05:19:00.294Z,7649.280
2022-10-17T05:20:00.399Z,9216.000
2022-10-17T05:21:00.294Z,9400.320
2022-10-17T05:22:00.292Z,9722.880
2022-10-17T05:23:00.288Z,10045.440
2022-10-17T05:24:00.285Z,10782.720
2022-10-17T05:25:00.337Z,10644.480
2022-10-17T05:26:00.436Z,10275.840
2022-10-17T05:27:00.284Z,10183.680
2022-10-17T05:28:00.453Z,9815.040
2022-10-17T05:29:00.483Z,10414.080
2022-10-17T05:30:00.319Z,10874.880
2022-10-17T05:31:00.306Z,11013.120
2022-10-17T05:33:00.290Z,11658.240
2022-10-17T05:34:00.382Z,11888.640
2022-10-17T05:35:00.307Z,12165.120
2022-10-17T05:36:00.293Z,12165.120
2022-10-17T05:37:00.276Z,12349.440
2022-10-17T05:38:00.550Z,12349.440
2022-10-17T05:39:00.329Z,12625.920
2022-10-17T05:40:00.304Z,12718.080
2022-10-17T05:41:00.304Z,12902.400
2022-10-17T05:42:00.294Z,12994.560
2022-10-17T05:43:00.328Z,13086.720
2022-10-17T05:44:03.207Z,13178.880
2022-10-17T05:45:00.286Z,13271.040
2022-10-17T05:46:00.305Z,13363.200
2022-10-17T05:47:00.282Z,13271.040
2022-10-17T05:48:00.318Z,13271.040
2022-10-17T05:49:00.373Z,13363.200
2022-10-17T05:50:00.495Z,12902.400
2022-10-17T05:51:00.318Z,13639.680
2022-10-17T05:52:00.285Z,13639.680
2022-10-17T05:53:00.330Z,13731.840
2022-10-17T05:54:00.351Z,13824.000
2022-10-17T05:55:00.308Z,13731.840
2022-10-17T05:56:00.460Z,14008.320
2022-10-17T05:57:00.293Z,14192.640
2022-10-17T05:58:00.285Z,14192.640
2022-10-17T05:59:01.170Z,14192.640
2022-10-17T06:00:00.437Z,14192.640
2022-10-17T06:01:00.316Z,14284.800
2022-10-17T06:02:00.581Z,14192.640
2022-10-17T06:03:00.293Z,14100.480
2022-10-17T06:04:00.278Z,14100.480
2022-10-17T06:05:00.294Z,14192.640
2022-10-17T06:06:00.333Z,14192.640
2022-10-17T06:07:00.289Z,14192.640
2022-10-17T06:08:01.995Z,14100.480
2022-10-17T06:09:00.293Z,14192.640
2022-10-17T06:10:00.308Z,14469.120
2022-10-17T06:11:00.356Z,14561.280
2022-10-17T06:12:00.366Z,14469.120
2022-10-17T06:13:00.292Z,14376.960
2022-10-17T06:14:00.457Z,14376.960
2022-10-17T06:15:00.478Z,14469.120
2022-10-17T06:16:00.293Z,14653.440
2022-10-17T06:17:00.376Z,14745.600
2022-10-17T06:18:00.282Z,14745.600
2022-10-17T06:19:00.311Z,13639.680
2022-10-17T06:20:00.493Z,13363.200
2022-10-17T06:21:00.300Z,14469.120
2022-10-17T06:22:00.294Z,14837.760
2022-10-17T06:23:00.281Z,14745.600
2022-10-17T06:24:00.287Z,14745.600
2022-10-17T06:25:00.313Z,14745.600
2022-10-17T06:26:00.416Z,14837.760
2022-10-17T06:27:00.289Z,14837.760
2022-10-17T06:28:00.301Z,14837.760
2022-10-17T06:29:00.404Z,14284.800
2022-10-17T06:30:00.399Z,13178.880
2022-10-17T06:31:00.294Z,14929.920
2022-10-17T06:32:00.526Z,15114.240
2022-10-17T06:33:00.370Z,15759.360
2022-10-17T06:34:00.341Z,15759.360
2022-10-17T06:35:00.296Z,15298.560
2022-10-17T06:36:00.289Z,13824.000
2022-10-17T06:37:00.296Z,13271.040
2022-10-17T06:38:00.529Z,15114.240
2022-10-17T06:39:00.297Z,12994.560
2022-10-17T06:40:00.297Z,10183.680
2022-10-17T06:41:00.275Z,5644.800
2022-10-17T06:42:00.309Z,10414.080
2022-10-17T06:43:00.309Z,7372.800
2022-10-17T06:44:00.438Z,15390.720
2022-10-17T06:45:00.451Z,15390.720
2022-10-17T06:46:00.429Z,8386.560
2022-10-17T06:47:00.286Z,10368.000
2022-10-17T06:48:00.308Z,15759.360
2022-10-17T06:49:00.339Z,16128.000
2022-10-17T06:50:00.450Z,13731.840
2022-10-17T06:51:00.304Z,17694.721
2022-10-17T06:52:00.285Z,17418.240
2022-10-17T06:53:00.285Z,17326.080
2022-10-17T06:54:00.302Z,16680.961
2022-10-17T06:55:00.422Z,15575.040
2022-10-17T06:56:00.426Z,5944.320
2022-10-17T06:57:00.308Z,4584.960
2022-10-17T06:58:00.313Z,5852.160
2022-10-17T06:59:00.288Z,7326.720
2022-10-17T07:00:00.348Z,7695.360
2022-10-17T07:01:01.121Z,6082.560
2022-10-17T07:02:00.616Z,8478.720
2022-10-17T07:03:00.278Z,8847.360
2022-10-17T07:04:00.286Z,9953.280
2022-10-17T07:05:00.330Z,12994.560
2022-10-17T07:06:00.294Z,4930.560
2022-10-17T07:07:00.358Z,5552.640
2022-10-17T07:08:00.591Z,4584.960
2022-10-17T07:09:00.297Z,4654.080
2022-10-17T07:10:00.299Z,4953.600
2022-10-17T07:11:00.466Z,5022.720
2022-10-17T07:12:00.473Z,4792.320
2022-10-17T07:13:00.305Z,17510.400
2022-10-17T07:14:00.504Z,4861.440
2022-10-17T07:15:00.330Z,4538.880
2022-10-17T07:16:00.457Z,4170.240
2022-10-17T07:17:00.300Z,3640.320
2022-10-17T07:18:00.273Z,3456.000
2022-10-17T07:19:00.335Z,3409.920
2022-10-17T07:20:00.508Z,3709.440
2022-10-17T07:21:00.305Z,3571.200
2022-10-17T07:22:00.305Z,3640.320
2022-10-17T07:23:00.314Z,3985.920
2022-10-17T07:24:00.323Z,4976.640
2022-10-17T07:25:00.322Z,5207.040
2022-10-17T07:26:00.421Z,9354.240
2022-10-17T07:27:00.315Z,5068.800
2022-10-17T07:28:00.314Z,4930.560
2022-10-17T07:29:00.401Z,5368.320
2022-10-17T07:30:00.290Z,6865.920
2022-10-17T07:31:00.490Z,7649.280
2022-10-17T07:32:00.473Z,8386.560
2022-10-17T07:33:00.315Z,7787.520
2022-10-17T07:34:00.296Z,10874.880
2022-10-17T07:35:00.278Z,9538.560
2022-10-17T07:36:00.313Z,8801.280
2022-10-17T07:37:00.298Z,12810.240
2022-10-17T07:38:00.472Z,10736.640
2022-10-17T07:39:00.363Z,8340.480
2022-10-17T07:40:00.339Z,11888.640
2022-10-17T07:41:00.326Z,16588.801
2022-10-17T07:42:00.387Z,11381.760
2022-10-17T07:43:00.289Z,8985.600
2022-10-17T07:44:00.438Z,14284.800
2022-10-17T07:45:00.306Z,10598.400
2022-10-17T07:46:00.389Z,7741.440
2022-10-17T07:47:00.435Z,9676.800
2022-10-17T07:48:00.304Z,8570.880
2022-10-17T07:49:00.305Z,8570.880
2022-10-17T07:50:00.443Z,7833.600
2022-10-17T07:51:00.391Z,10736.640
2022-10-17T07:52:00.288Z,6727.680
2022-10-17T07:53:00.297Z,5552.640
2022-10-17T07:54:00.316Z,5345.280
2022-10-17T07:55:00.320Z,5437.440
2022-10-17T07:56:00.420Z,5322.240
2022-10-17T07:57:00.288Z,4907.520
2022-10-17T07:58:00.280Z,4262.400
2022-10-17T07:59:02.645Z,3663.360
2022-10-17T08:00:00.323Z,3202.560
2022-10-17T08:01:00.341Z,2949.120
2022-10-17T08:02:00.606Z,2741.760
2022-10-17T08:03:00.283Z,2580.480
2022-10-17T08:04:00.301Z,2453.760
2022-10-17T08:05:00.295Z,2419.200
2022-10-17T08:06:00.312Z,2476.800
2022-10-17T08:07:11.336Z,2661.120
2022-10-17T08:08:00.442Z,2949.120
2022-10-17T08:09:00.283Z,3548.160
2022-10-17T08:10:00.413Z,5460.480
2022-10-17T08:11:00.275Z,5621.760
2022-10-17T08:12:00.291Z,5483.520
2022-10-17T08:13:00.301Z,5713.920
2022-10-17T08:14:00.467Z,4700.160
2022-10-17T08:15:00.341Z,3893.760
2022-10-17T08:16:00.297Z,3432.960
2022-10-17T08:17:00.490Z,3732.480
2022-10-17T08:18:00.300Z,4608.000
2022-10-17T08:19:00.342Z,5898.240
2022-10-17T08:20:00.484Z,4631.040
2022-10-17T08:21:00.465Z,4746.240
2022-10-17T08:22:00.314Z,4216.320
2022-10-17T08:23:00.312Z,7418.880
2022-10-17T08:24:00.297Z,6359.040
2022-10-17T08:25:00.287Z,5736.960
2022-10-17T08:26:00.452Z,8110.080
2022-10-17T08:27:00.293Z,15943.680
2022-10-17T08:28:00.328Z,18524.160
2022-10-17T08:29:00.419Z,12441.600
2022-10-17T08:30:00.306Z,14284.800
2022-10-17T08:31:00.328Z,18616.320
2022-10-17T08:32:02.336Z,9907.200
2022-10-17T08:33:00.330Z,13086.720
2022-10-17T08:34:00.322Z,18247.680
2022-10-17T08:35:00.294Z,20367.359
2022-10-17T08:36:00.280Z,8340.480
2022-10-17T08:37:00.347Z,21196.801
2022-10-17T08:38:00.431Z,19814.400
2022-10-17T08:39:00.304Z,18247.680
2022-10-17T08:40:00.280Z,8110.080
2022-10-17T08:41:00.393Z,7050.240
2022-10-17T08:42:00.308Z,6635.520
2022-10-17T08:43:00.380Z,7280.640
2022-10-17T08:44:00.516Z,7649.280
2022-10-17T08:45:00.300Z,4723.200
2022-10-17T08:46:00.295Z,2868.480
2022-10-17T08:47:00.397Z,2315.520
2022-10-17T08:48:00.340Z,2131.200
2022-10-17T08:49:00.323Z,2246.400
2022-10-17T08:50:00.411Z,2419.200
2022-10-17T08:51:00.316Z,2580.480
2022-10-17T08:52:00.344Z,2718.720
2022-10-17T08:53:00.289Z,2810.880
2022-10-17T08:54:00.297Z,2937.600
2022-10-17T08:55:00.390Z,3202.560
2022-10-17T08:56:00.418Z,3386.880
2022-10-17T08:57:00.296Z,3294.720
2022-10-17T08:58:00.299Z,2972.160
2022-10-17T08:59:00.310Z,3018.240
2022-10-17T09:00:00.282Z,2937.600
2022-10-17T09:01:00.438Z,2949.120
2022-10-17T09:02:00.600Z,3018.240
2022-10-17T09:03:00.383Z,3087.360
2022-10-17T09:04:00.306Z,3317.760
2022-10-17T09:05:00.315Z,3409.920
2022-10-17T09:06:00.282Z,3548.160
2022-10-17T09:07:00.297Z,3456.000
2022-10-17T09:08:00.457Z,3617.280
2022-10-17T09:09:00.296Z,3432.960
2022-10-17T09:10:00.297Z,3202.560
2022-10-17T09:11:00.303Z,3041.280
2022-10-17T09:12:00.307Z,2903.040
2022-10-17T09:13:05.366Z,2776.320
2022-10-17T09:14:00.538Z,2695.680
2022-10-17T09:17:00.506Z,2580.480
2022-10-17T09:18:00.313Z,2615.040
2022-10-17T09:19:00.304Z,2684.160
2022-10-17T09:20:00.593Z,2776.320
2022-10-17T09:21:00.287Z,2949.120
2022-10-17T09:22:00.285Z,3294.720
2022-10-17T09:23:00.399Z,3617.280
2022-10-17T09:24:09.085Z,4170.240
2022-10-17T09:25:00.325Z,4285.440
2022-10-17T09:26:00.436Z,4561.920
2022-10-17T09:27:00.297Z,4792.320
2022-10-17T09:28:00.285Z,4815.360
2022-10-17T09:29:00.379Z,5207.040
2022-10-17T09:30:00.329Z,4400.640
2022-10-17T09:31:00.310Z,3755.520
2022-10-17T09:32:00.459Z,3340.800
2022-10-17T09:33:00.278Z,3087.360
2022-10-17T09:34:00.309Z,2995.200
2022-10-17T09:35:00.384Z,2937.600
2022-10-17T09:36:00.291Z,2868.480
2022-10-17T09:37:00.312Z,2833.920
2022-10-17T09:38:00.429Z,2787.840
2022-10-17T09:39:00.308Z,2764.800
2022-10-17T09:40:00.291Z,2787.840
2022-10-17T09:41:00.363Z,3018.240
2022-10-17T09:42:00.314Z,3064.320
2022-10-17T09:43:00.295Z,2972.160
2022-10-17T09:44:00.445Z,2891.520
2022-10-17T09:45:00.292Z,2776.320
2022-10-17T09:46:00.347Z,2707.200
2022-10-17T09:47:00.577Z,2615.040
2022-10-17T09:48:01.747Z,2557.440
2022-10-17T09:49:00.311Z,2534.400
2022-10-17T09:50:00.413Z,2568.960
2022-10-17T09:51:14.984Z,2649.600
2022-10-17T09:52:00.352Z,3064.320
2022-10-17T09:53:00.313Z,3778.560
2022-10-17T09:54:00.397Z,4308.480
2022-10-17T09:55:00.316Z,4400.640
2022-10-17T09:56:00.439Z,4815.360
2022-10-17T09:57:00.339Z,7234.560
2022-10-17T09:58:00.284Z,7557.120
2022-10-17T09:59:00.319Z,11704.320
2022-10-17T10:00:00.542Z,13547.520
2022-10-17T10:01:00.359Z,13178.880
2022-10-17T10:02:00.601Z,12810.240
2022-10-17T10:03:00.292Z,9584.640
2022-10-17T10:04:00.293Z,7464.960
2022-10-17T10:05:04.953Z,7188.480
2022-10-17T10:06:00.276Z,6865.920
2022-10-17T10:07:00.293Z,6635.520
2022-10-17T10:08:00.513Z,6681.600
2022-10-17T10:09:00.308Z,6405.120
2022-10-17T10:10:00.292Z,5391.360
2022-10-17T10:11:00.293Z,4561.920
2022-10-17T10:12:00.290Z,4216.320
2022-10-17T10:13:00.307Z,3847.680
2022-10-17T10:14:00.632Z,3962.880
2022-10-17T10:15:00.305Z,3893.760
2022-10-17T10:16:00.365Z,4262.400
2022-10-17T10:17:00.499Z,5322.240
2022-10-17T10:18:00.346Z,5068.800
2022-10-17T10:19:00.294Z,5783.040
2022-10-17T10:20:00.451Z,5506.560
2022-10-17T10:21:00.316Z,6082.560
2022-10-17T10:22:00.274Z,4861.440
2022-10-17T10:23:00.289Z,5091.840
2022-10-17T10:24:00.294Z,6681.600
2022-10-17T10:25:00.300Z,4608.000
2022-10-17T10:26:00.445Z,3916.800
2022-10-17T10:27:00.278Z,3985.920
2022-10-17T10:28:01.466Z,3686.400
2022-10-17T10:29:00.391Z,3801.600
2022-10-17T10:30:00.281Z,4008.960
2022-10-17T10:32:00.423Z,3640.320
2022-10-17T10:34:00.331Z,3686.400
2022-10-17T10:35:00.293Z,3824.640
2022-10-17T10:36:00.379Z,3732.480
2022-10-17T10:37:00.367Z,3548.160
2022-10-17T10:38:00.590Z,3709.440
2022-10-17T10:39:02.565Z,3847.680
2022-10-17T10:40:00.368Z,3939.840
2022-10-17T10:41:00.338Z,4446.720
2022-10-17T10:42:00.282Z,5414.400
2022-10-17T10:43:05.123Z,5460.480
2022-10-17T10:44:00.508Z,3340.800
2022-10-17T10:45:00.313Z,3271.680
2022-10-17T10:46:00.301Z,3110.400
2022-10-17T10:47:00.532Z,3041.280
2022-10-17T10:48:00.312Z,2914.560
2022-10-17T10:49:00.341Z,3156.480
2022-10-17T10:50:00.433Z,4308.480
2022-10-17T10:51:00.304Z,3686.400
2022-10-17T10:52:00.305Z,2822.400
2022-10-17T10:53:00.282Z,2730.240
2022-10-17T10:54:00.370Z,2753.280
2022-10-17T10:55:00.409Z,2557.440
2022-10-17T10:56:00.433Z,2522.880
2022-10-17T10:57:00.375Z,2626.560
2022-10-17T10:58:00.301Z,2488.320
2022-10-17T10:59:00.295Z,2419.200
2022-10-17T11:00:00.299Z,2453.760
2022-10-17T11:01:00.377Z,2488.320
2022-10-17T11:02:00.594Z,2511.360
2022-10-17T11:03:01.925Z,2419.200
2022-10-17T11:04:00.365Z,2430.720
2022-10-17T11:05:00.296Z,2476.800
2022-10-17T11:06:00.297Z,2534.400
2022-10-17T11:07:00.303Z,2822.400
2022-10-17T11:08:00.421Z,2868.480
2022-10-17T11:09:00.296Z,2903.040
2022-10-17T11:10:00.281Z,2776.320
2022-10-17T11:11:00.283Z,3663.360
2022-10-17T11:12:00.299Z,3916.800
2022-10-17T11:13:00.298Z,3824.640
2022-10-17T11:14:00.430Z,3801.600
2022-10-17T11:15:00.326Z,3294.720
2022-10-17T11:16:00.383Z,3709.440
2022-10-17T11:17:00.438Z,4239.360
2022-10-17T11:18:00.291Z,4170.240
2022-10-17T11:19:00.299Z,4147.200
2022-10-17T11:20:00.530Z,4492.800
2022-10-17T11:21:00.283Z,4538.880
2022-10-17T11:22:00.279Z,4400.640
2022-10-17T11:23:00.297Z,4032.000
2022-10-17T11:24:00.298Z,3870.720
2022-10-17T11:25:00.291Z,3202.560
2022-10-17T11:26:00.426Z,3087.360
2022-10-17T11:27:00.327Z,3225.600
2022-10-17T11:28:04.687Z,3202.560
2022-10-17T11:29:00.421Z,3525.120
2022-10-17T11:30:00.301Z,3409.920
2022-10-17T11:31:02.337Z,2949.120
2022-10-17T11:32:00.528Z,2891.520
2022-10-17T11:33:00.387Z,3018.240
2022-10-17T11:34:00.278Z,2972.160
2022-10-17T11:35:00.300Z,2949.120
2022-10-17T11:36:00.295Z,3064.320
2022-10-17T11:37:00.281Z,3525.120
2022-10-17T11:38:00.529Z,3271.680
2022-10-17T11:39:00.320Z,3248.640
2022-10-17T11:40:00.293Z,3502.080
2022-10-17T11:41:00.298Z,3432.960
2022-10-17T11:42:03.385Z,3294.720
2022-10-17T11:43:00.297Z,3525.120
2022-10-17T11:44:00.528Z,3456.000
2022-10-17T11:45:00.279Z,3248.640
2022-10-17T11:46:00.305Z,3018.240
2022-10-17T11:47:00.304Z,3225.600
2022-10-17T11:48:00.412Z,3225.600
2022-10-17T11:49:00.464Z,3110.400
2022-10-17T11:51:59.653Z,3087.360
2022-10-17T11:52:01.999Z,2949.120
2022-10-17T11:53:00.705Z,2949.120
2022-10-17T11:54:00.292Z,2833.920
2022-10-17T11:55:00.289Z,2880.000
2022-10-17T11:56:00.427Z,2822.400
2022-10-17T11:57:00.292Z,2799.360
2022-10-17T11:58:00.295Z,2730.240
2022-10-17T11:59:00.300Z,2672.640
2022-10-17T12:00:00.313Z,2557.440
2022-10-17T12:01:00.306Z,2499.840
2022-10-17T12:02:00.439Z,2465.280
2022-10-17T12:03:00.351Z,2534.400
2022-10-17T12:04:00.483Z,2545.920
2022-10-17T12:05:00.353Z,2534.400
2022-10-17T12:06:00.278Z,2545.920
2022-10-17T12:07:00.288Z,2476.800
2022-10-17T12:08:00.448Z,2419.200
2022-10-17T12:09:00.295Z,2384.640
2022-10-17T12:10:01.328Z,2361.600